Kasane, Botswana

8:45 PM CAT on July 13, 2014 (GMT +0200)
Kasane (FBKE) Elev 3281 ft | 17.83 °S, 25.16 °E | Change Station

Current weather conditions updated 1 hour ago

Clear
Clear
64 °F
Feels Like 64 °F
N
8
Wind Variable Wind from SE

Tomorrow is forecast to be nearly the same temperature as today.

Today
High -- | Low -- °F
--% Chance of Precip.
Yesterday
High -- | Low -- °F
Precip. -- in
6:50 AM 5:59 PM
Full, 97% visible
Pressure 30.18 in
Visibility -9999.0 miles
Clouds
Dew Point 37 °F
Humidity 37%
Rainfall 0.00 in
Snow Depth Not available.
UV Not available.
Pollen Not available.
Air Quality Not available.
Flu Activity Not available.
METAR FBKE 131700Z 14007KT CAVOK 18/03 Q1022

More Conditions Fewer Conditions

Pressure 30.18 in
Visibility -9999.0 miles
Clouds
Dew Point 37 °F
Humidity 37%
Rainfall 0.00 in
Snow Depth Not available.
UV Not available.
Pollen Not available.
Air Quality Not available.
Flu Activity Not available.
METAR FBKE 131700Z 14007KT CAVOK 18/03 Q1022

More Conditions Fewer Conditions

10-Day Weather Forecast

Almanac

Astronomy

Jul. 13, 2014 Rise Set
Actual Time 6:50 AM CAT 5:59 PM CAT
Civil Twilight 6:27 AM CAT 6:22 PM CAT
Nautical Twilight 6:00 AM CAT 6:49 PM CAT
Astronomical Twilight 5:34 AM CAT 7:16 PM CAT
Moon 7:16 PM CAT 7:24 AM CAT
Length of Visible Light 11h 55m
Length of Day
11h 08m
Tomorrow will be 0m 26s longer.
Full, 97% of the Moon is Illuminated
Today
Full
Jul 18
Last Quarter
Jul 26
New
Aug 3
First Quarter
Aug 10
Full

Today's Extremes

Country Highs Country Lows

Community

WunderPhotos

Upload Photos

1,733,324 photos uploaded!

Nearby

Snow Depth

Not available.

Earthquake Activity

City Distance Mag. Time & Date
No recent earthquake activity has been reported nearby.
Minimum magnitude displayed is 2.5.

Coastal Water Temperatures

Place Temperature
No Stations Reporting

Nearby Weather Stations

There are no personal weather stations in this area.